Terminal Aerodrome Forecast
Issued by NWS

Home | Current Version | Previous Version | Text Only | Print | Product List | Glossary On
Versions: 1 2 3 4 5 6 7 8 9 10 11 12 13 14 15
000
FTUS41 KCAR 280535
TAFPQI
TAF
KPQI 280535Z 2806/2906 18007KT P6SM BKN100
     FM281500 19011KT P6SM VCSH OVC050
     FM290300 21007KT P6SM VCSH OVC025=

USA.gov is the U.S. government's official web portal to all federal, state and local government web resources and services.